createdAt,value
2022-08-25T00:03:44.295Z,3.75
2022-08-25T00:09:05.437Z,7.65
2022-08-25T00:14:33.566Z,7.28
2022-08-25T00:19:54.245Z,12.70
2022-08-25T00:25:15.136Z,5.93
2022-08-25T00:30:36.932Z,12.52
2022-08-25T00:35:58.296Z,6.75
2022-08-25T00:41:21.558Z,6.28
2022-08-25T00:46:51.468Z,7.38
2022-08-25T00:52:14.530Z,5.75
2022-08-25T00:57:47.407Z,6.60
2022-08-25T01:03:08.325Z,7.95
2022-08-25T01:08:32.223Z,7.43
2022-08-25T01:13:55.741Z,8.15
2022-08-25T01:19:16.207Z,7.07
2022-08-25T01:25:01.943Z,6.10
2022-08-25T01:30:24.561Z,7.25
2022-08-25T01:35:46.959Z,6.28
2022-08-25T01:41:07.775Z,7.78
2022-08-25T01:46:29.132Z,5.82
2022-08-25T01:52:06.652Z,7.75
2022-08-25T01:57:30.478Z,7.18
2022-08-25T02:02:52.241Z,10.20
2022-08-25T02:08:16.189Z,4.28
2022-08-25T02:13:37.196Z,5.90
2022-08-25T02:18:59.283Z,9.82
2022-08-25T02:24:20.145Z,5.40
2022-08-25T02:29:41.311Z,6.22
2022-08-25T02:35:02.518Z,8.55
2022-08-25T02:40:23.384Z,7.03
2022-08-25T02:45:43.996Z,5.57
2022-08-25T02:51:06.473Z,5.90
2022-08-25T02:56:26.802Z,6.47
2022-08-25T03:01:47.261Z,5.20
2022-08-25T03:07:07.988Z,6.80
2022-08-25T03:12:29.291Z,4.43
2022-08-25T03:17:50.586Z,8.25
2022-08-25T03:23:11.732Z,5.03
2022-08-25T03:28:36.494Z,7.85
2022-08-25T03:33:58.640Z,7.07
2022-08-25T03:39:20.957Z,5.72
2022-08-25T03:44:41.893Z,9.20
2022-08-25T03:50:02.740Z,7.88
2022-08-25T03:55:25.884Z,5.05
2022-08-25T04:00:46.444Z,8.43
2022-08-25T04:06:07.678Z,10.23
2022-08-25T04:11:28.861Z,8.45
2022-08-25T04:16:49.978Z,11.48
2022-08-25T04:22:10.759Z,8.15
2022-08-25T04:27:34.021Z,11.53
2022-08-25T04:32:54.715Z,8.80
2022-08-25T04:38:15.457Z,8.15
2022-08-25T04:43:38.657Z,14.50
2022-08-25T04:49:00.289Z,7.90
2022-08-25T04:54:22.090Z,9.07
2022-08-25T04:59:42.905Z,13.25
2022-08-25T05:05:04.185Z,8.90
2022-08-25T05:10:24.781Z,10.52
2022-08-25T05:16:00.254Z,9.52
2022-08-25T05:21:24.180Z,8.05
2022-08-25T05:26:44.887Z,9.07
2022-08-25T05:32:06.743Z,10.07
2022-08-25T05:37:28.456Z,8.90
2022-08-25T05:42:49.111Z,7.13
2022-08-25T05:48:10.129Z,11.25
2022-08-25T05:53:34.073Z,7.70
2022-08-25T05:58:54.903Z,7.75
2022-08-25T06:04:18.004Z,10.55
2022-08-25T06:09:40.077Z,6.63
2022-08-25T06:15:00.612Z,12.95
2022-08-25T06:20:25.383Z,13.23
2022-08-25T06:25:50.930Z,5.35
2022-08-25T06:31:11.734Z,8.25
2022-08-25T06:36:33.435Z,8.63
2022-08-25T06:41:56.442Z,13.55
2022-08-25T06:47:20.235Z,5.38
2022-08-25T06:52:40.601Z,13.27
2022-08-25T06:58:03.380Z,11.27
2022-08-25T07:03:25.427Z,7.13
2022-08-25T07:08:47.974Z,7.13
2022-08-25T07:14:11.736Z,5.82
2022-08-25T07:19:32.632Z,5.22
2022-08-25T07:24:53.233Z,7.10
2022-08-25T07:30:15.257Z,10.20
2022-08-25T07:35:37.680Z,8.38
2022-08-25T07:41:04.527Z,5.88
2022-08-25T07:46:25.373Z,8.85
2022-08-25T07:52:05.631Z,4.07
2022-08-25T07:57:29.510Z,11.60
2022-08-25T08:02:49.827Z,6.80
2022-08-25T08:08:10.824Z,5.70
2022-08-25T08:13:34.832Z,5.88
2022-08-25T08:18:59.813Z,6.28
2022-08-25T08:24:40.771Z,9.50
2022-08-25T08:30:02.264Z,10.52
2022-08-25T08:35:22.765Z,12.20
2022-08-25T08:41:22.958Z,9.60
2022-08-25T08:47:04.928Z,10.15
2022-08-25T08:53:11.709Z,5.68
2022-08-25T08:58:46.256Z,15.27
2022-08-25T09:04:35.139Z,5.90
2022-08-25T09:09:57.304Z,9.82
2022-08-25T09:16:02.543Z,6.53
2022-08-25T09:21:32.564Z,7.90
2022-08-25T09:27:14.802Z,5.65
2022-08-25T09:32:52.312Z,6.95
2022-08-25T09:38:16.744Z,5.38
2022-08-25T09:43:44.645Z,5.38
2022-08-25T09:49:13.437Z,10.40
2022-08-25T09:54:44.348Z,7.90
2022-08-25T10:00:38.161Z,7.10
2022-08-25T10:06:04.266Z,5.93
2022-08-25T10:11:44.007Z,5.35
2022-08-25T10:17:27.668Z,4.75
2022-08-25T10:22:50.616Z,7.45
2022-08-25T10:33:45.492Z,6.63
2022-08-25T10:39:34.343Z,7.28
2022-08-25T10:45:32.944Z,5.88
2022-08-25T10:51:08.520Z,5.82
2022-08-25T10:56:37.081Z,7.07
2022-08-25T11:02:20.020Z,5.27
2022-08-25T11:07:44.424Z,5.82
2022-08-25T11:13:12.083Z,6.03
2022-08-25T11:18:32.888Z,8.90
2022-08-25T11:24:11.940Z,7.65
2022-08-25T11:29:36.817Z,7.63
2022-08-25T11:35:01.116Z,5.80
2022-08-25T11:40:52.141Z,10.43
2022-08-25T11:46:28.602Z,6.30
2022-08-25T11:51:51.256Z,6.15
2022-08-25T11:57:23.112Z,6.10
2022-08-25T12:02:47.853Z,6.25
2022-08-25T12:08:27.165Z,6.63
2022-08-25T12:13:51.734Z,8.52
2022-08-25T12:19:25.762Z,6.45
2022-08-25T12:30:38.946Z,8.07
2022-08-25T12:36:06.891Z,6.90
2022-08-25T12:41:33.767Z,9.13
2022-08-25T12:47:19.438Z,6.45
2022-08-25T12:52:44.988Z,6.00
2022-08-25T12:58:07.495Z,7.93
2022-08-25T13:03:54.599Z,6.55
2022-08-25T13:10:10.651Z,9.13
2022-08-25T13:15:41.082Z,13.25
2022-08-25T13:21:17.753Z,15.35
2022-08-25T13:26:47.255Z,16.60
2022-08-25T13:32:14.481Z,15.52
2022-08-25T13:37:35.202Z,15.85
2022-08-25T13:43:01.252Z,16.03
2022-08-25T13:48:37.206Z,13.60
2022-08-25T13:54:02.677Z,13.73
2022-08-25T13:59:26.741Z,12.98
2022-08-25T14:04:51.645Z,13.20
2022-08-25T14:10:40.182Z,13.38
2022-08-25T14:16:11.393Z,15.63
2022-08-25T14:21:33.835Z,15.63
2022-08-25T14:26:55.364Z,15.00
2022-08-25T14:32:16.852Z,14.65
2022-08-25T14:37:37.920Z,13.35
2022-08-25T14:42:59.471Z,13.57
2022-08-25T14:48:28.496Z,12.77
2022-08-25T14:53:49.877Z,10.70
2022-08-25T14:59:11.681Z,11.02
2022-08-25T15:04:32.713Z,14.93
2022-08-25T15:09:53.005Z,10.35
2022-08-25T15:15:14.356Z,14.88
2022-08-25T15:20:35.270Z,12.10
2022-08-25T15:25:57.733Z,12.63
2022-08-25T15:31:20.572Z,10.63
2022-08-25T15:36:41.724Z,11.27
2022-08-25T15:47:24.792Z,10.27
2022-08-25T15:52:47.717Z,9.65
2022-08-25T15:58:09.493Z,9.98
2022-08-25T16:03:31.397Z,6.80
2022-08-25T16:08:52.054Z,7.23
2022-08-25T16:14:15.010Z,6.10
2022-08-25T16:19:38.176Z,9.93
2022-08-25T16:25:00.163Z,7.97
2022-08-25T16:30:21.228Z,5.53
2022-08-25T16:35:43.686Z,5.05
2022-08-25T16:41:09.081Z,7.40
2022-08-25T16:46:31.130Z,7.38
2022-08-25T16:51:57.207Z,10.90
2022-08-25T16:57:18.585Z,5.00
2022-08-25T17:02:40.304Z,7.32
2022-08-25T17:08:33.777Z,7.65
2022-08-25T17:13:58.105Z,6.57
2022-08-25T17:19:18.842Z,4.63
2022-08-25T17:24:41.027Z,6.95
2022-08-25T17:30:01.399Z,8.88
2022-08-25T17:35:22.711Z,11.35
2022-08-25T17:40:43.803Z,7.88
2022-08-25T17:46:06.104Z,6.90
2022-08-25T17:51:26.691Z,8.25
2022-08-25T18:02:10.912Z,11.73
2022-08-25T18:07:31.299Z,6.25
2022-08-25T18:12:52.453Z,13.55
2022-08-25T18:18:13.329Z,5.90
2022-08-25T18:23:36.386Z,9.63
2022-08-25T18:28:57.149Z,6.10
2022-08-25T18:34:18.213Z,5.22
2022-08-25T18:39:58.260Z,12.20
2022-08-25T18:45:20.553Z,6.45
2022-08-25T18:50:43.087Z,7.28
2022-08-25T18:56:04.090Z,9.88
2022-08-25T19:01:25.197Z,6.47
2022-08-25T19:06:45.882Z,8.48
2022-08-25T19:12:11.785Z,10.13
2022-08-25T19:17:43.785Z,9.18
2022-08-25T19:23:04.333Z,11.02
2022-08-25T19:33:51.550Z,14.45
2022-08-25T19:39:14.867Z,10.18
2022-08-25T19:44:36.724Z,16.45
2022-08-25T19:49:58.463Z,15.57
2022-08-25T19:55:19.740Z,12.43
2022-08-25T20:00:40.520Z,10.77
2022-08-25T20:06:01.077Z,5.70
2022-08-25T20:11:21.761Z,8.38
2022-08-25T20:16:43.112Z,15.30
2022-08-25T20:22:03.630Z,5.97
2022-08-25T20:27:36.556Z,7.50
2022-08-25T20:32:57.397Z,7.60
2022-08-25T20:38:18.043Z,9.55
2022-08-25T20:43:40.300Z,9.27
2022-08-25T20:49:01.832Z,15.88
2022-08-25T20:54:25.492Z,12.15
2022-08-25T20:59:46.977Z,10.00
2022-08-25T21:05:08.704Z,10.90
2022-08-25T21:10:29.459Z,9.05
2022-08-25T21:15:51.705Z,10.52
2022-08-25T21:21:15.050Z,11.63
2022-08-25T21:26:47.644Z,16.48
2022-08-25T21:32:09.802Z,9.43
2022-08-25T21:37:30.159Z,19.17
2022-08-25T21:42:51.827Z,12.25
2022-08-25T21:48:12.292Z,16.50
2022-08-25T21:53:33.202Z,15.77
2022-08-25T21:58:55.143Z,14.38
2022-08-25T22:04:15.811Z,15.30
2022-08-25T22:09:36.389Z,16.15
2022-08-25T22:14:57.137Z,15.82
2022-08-25T22:20:19.534Z,16.95
2022-08-25T22:25:40.818Z,13.82
2022-08-25T22:31:03.967Z,12.95
2022-08-25T22:36:27.844Z,13.33
2022-08-25T22:41:48.274Z,17.37
2022-08-25T22:47:09.557Z,10.55
2022-08-25T22:52:33.967Z,13.85
2022-08-25T22:57:55.608Z,18.25
2022-08-25T23:03:16.353Z,12.30
2022-08-25T23:08:40.714Z,13.82
2022-08-25T23:14:02.190Z,18.67
2022-08-25T23:19:22.900Z,36.05
2022-08-25T23:24:51.876Z,23.05
2022-08-25T23:30:13.230Z,14.85
2022-08-25T23:35:33.891Z,13.13
2022-08-25T23:40:54.776Z,10.70
2022-08-25T23:46:18.132Z,17.58
2022-08-25T23:51:41.024Z,21.67
2022-08-25T23:57:01.639Z,17.05
